createdAt,value
2023-02-26T00:02:02.424Z,1.95
2023-02-26T00:04:30.850Z,2.25
2023-02-26T00:06:59.804Z,2.08
2023-02-26T00:09:32.488Z,2.63
2023-02-26T00:12:01.032Z,1.55
2023-02-26T00:14:33.274Z,1.58
2023-02-26T00:17:15.391Z,1.70
2023-02-26T00:19:47.479Z,2.22
2023-02-26T00:22:16.548Z,1.83
2023-02-26T00:24:44.824Z,1.67
2023-02-26T00:27:13.897Z,1.58
2023-02-26T00:29:43.881Z,1.58
2023-02-26T00:32:15.068Z,1.65
2023-02-26T00:34:44.882Z,1.52
2023-02-26T00:37:17.454Z,1.70
2023-02-26T00:39:55.303Z,1.92
2023-02-26T00:42:23.858Z,3.83
2023-02-26T00:44:54.750Z,2.30
2023-02-26T00:47:25.452Z,1.80
2023-02-26T00:49:58.277Z,2.42
2023-02-26T00:52:29.779Z,2.47
2023-02-26T00:54:58.134Z,3.70
2023-02-26T00:57:26.437Z,3.22
2023-02-26T00:59:56.152Z,2.05
2023-02-26T01:02:25.267Z,1.65
2023-02-26T01:04:54.102Z,1.80
2023-02-26T01:07:24.900Z,2.03
2023-02-26T01:09:53.503Z,1.42
2023-02-26T01:12:22.582Z,1.83
2023-02-26T01:14:58.079Z,1.73
2023-02-26T01:17:30.957Z,1.90
2023-02-26T01:23:10.730Z,1.85
2023-02-26T01:25:41.182Z,1.70
2023-02-26T01:28:09.939Z,1.75
2023-02-26T01:30:38.797Z,1.65
2023-02-26T01:33:13.136Z,1.50
2023-02-26T01:35:43.622Z,1.95
2023-02-26T01:38:17.435Z,2.20
2023-02-26T01:43:15.536Z,1.58
2023-02-26T01:45:52.429Z,1.38
2023-02-26T01:48:30.410Z,2.95
2023-02-26T01:50:58.774Z,1.50
2023-02-26T01:53:27.987Z,1.63
2023-02-26T01:55:58.187Z,1.83
2023-02-26T01:58:27.738Z,1.30
2023-02-26T02:00:56.092Z,1.48
2023-02-26T02:03:27.825Z,1.30
2023-02-26T02:05:57.661Z,1.75
2023-02-26T02:08:26.392Z,1.48
2023-02-26T02:10:54.977Z,1.63
2023-02-26T02:13:29.874Z,1.50
2023-02-26T02:16:03.972Z,1.45
2023-02-26T02:18:38.010Z,1.75
2023-02-26T02:21:27.705Z,1.45
2023-02-26T02:23:58.689Z,1.70
2023-02-26T02:26:47.982Z,1.23
2023-02-26T02:29:34.289Z,1.33
2023-02-26T02:32:07.658Z,1.60
2023-02-26T02:34:38.207Z,1.05
2023-02-26T02:37:08.697Z,1.23
2023-02-26T02:39:42.055Z,1.33
2023-02-26T02:42:18.878Z,1.65
2023-02-26T02:44:49.103Z,1.40
2023-02-26T02:47:20.181Z,1.65
2023-02-26T02:49:50.627Z,1.40
2023-02-26T02:52:21.236Z,1.20
2023-02-26T02:54:51.618Z,1.20
2023-02-26T02:57:22.174Z,1.00
2023-02-26T02:59:52.015Z,1.20
2023-02-26T03:02:25.654Z,1.30
2023-02-26T03:04:54.370Z,0.90
2023-02-26T03:07:22.705Z,1.35
2023-02-26T03:09:51.269Z,1.70
2023-02-26T03:12:19.558Z,1.30
2023-02-26T03:14:47.947Z,1.25
2023-02-26T03:17:21.495Z,1.35
2023-02-26T03:19:57.754Z,1.50
2023-02-26T03:22:30.601Z,1.58
2023-02-26T03:25:01.750Z,2.53
2023-02-26T03:27:33.296Z,1.90
2023-02-26T03:30:04.163Z,2.00
2023-02-26T03:32:34.976Z,1.55
2023-02-26T03:35:07.744Z,1.88
2023-02-26T03:37:38.491Z,2.30
2023-02-26T03:40:09.526Z,4.22
2023-02-26T03:42:39.590Z,2.08
2023-02-26T03:45:09.844Z,2.22
2023-02-26T03:47:38.451Z,1.40
2023-02-26T03:50:09.745Z,1.50
2023-02-26T03:52:40.841Z,1.73
2023-02-26T03:55:11.765Z,1.40
2023-02-26T03:57:40.228Z,1.70
2023-02-26T04:00:10.175Z,1.30
2023-02-26T04:02:40.878Z,1.23
2023-02-26T04:05:15.813Z,1.70
2023-02-26T04:07:44.554Z,1.40
2023-02-26T04:10:13.278Z,1.50
2023-02-26T04:12:41.554Z,1.40
2023-02-26T04:15:10.421Z,1.40
2023-02-26T04:17:38.940Z,1.88
2023-02-26T04:20:09.921Z,2.28
2023-02-26T04:22:39.840Z,1.67
2023-02-26T04:25:08.651Z,1.33
2023-02-26T04:27:36.973Z,1.90
2023-02-26T04:30:05.621Z,1.52
2023-02-26T04:32:34.059Z,0.90
2023-02-26T04:35:02.361Z,1.40
2023-02-26T04:37:30.699Z,1.45
2023-02-26T04:40:00.368Z,1.58
2023-02-26T04:42:28.664Z,1.17
2023-02-26T04:44:57.280Z,1.30
2023-02-26T04:47:25.574Z,1.10
2023-02-26T04:49:53.865Z,1.13
2023-02-26T04:52:22.207Z,1.40
2023-02-26T04:54:50.509Z,1.52
2023-02-26T04:57:20.207Z,1.63
2023-02-26T04:59:48.566Z,1.60
2023-02-26T05:02:16.884Z,1.40
2023-02-26T05:04:45.254Z,1.38
2023-02-26T05:07:13.976Z,1.48
2023-02-26T05:09:42.260Z,1.77
2023-02-26T05:12:10.564Z,1.33
2023-02-26T05:14:40.181Z,1.45
2023-02-26T05:17:08.456Z,1.60
2023-02-26T05:19:36.760Z,1.33
2023-02-26T05:22:05.107Z,1.70
2023-02-26T05:24:33.389Z,1.80
2023-02-26T05:27:01.682Z,1.20
2023-02-26T05:29:30.952Z,1.25
2023-02-26T05:32:00.624Z,1.63
2023-02-26T05:34:28.988Z,1.40
2023-02-26T05:36:57.302Z,1.35
2023-02-26T05:39:25.637Z,3.83
2023-02-26T05:41:55.484Z,2.35
2023-02-26T05:44:23.799Z,2.15
2023-02-26T05:46:52.257Z,1.70
2023-02-26T05:49:21.919Z,2.97
2023-02-26T05:51:50.240Z,1.50
2023-02-26T05:54:18.529Z,1.50
2023-02-26T05:56:47.002Z,2.30
2023-02-26T05:59:15.354Z,1.73
2023-02-26T06:01:43.755Z,1.55
2023-02-26T06:04:12.141Z,1.98
2023-02-26T06:06:42.040Z,2.03
2023-02-26T06:09:10.590Z,1.60
2023-02-26T06:11:40.505Z,1.70
2023-02-26T06:14:08.866Z,1.50
2023-02-26T06:16:37.251Z,2.10
2023-02-26T06:19:06.209Z,2.20
2023-02-26T06:21:34.494Z,1.70
2023-02-26T06:24:04.148Z,2.05
2023-02-26T06:26:32.437Z,2.33
2023-02-26T06:29:00.724Z,1.80
2023-02-26T06:31:29.078Z,1.90
2023-02-26T06:33:57.442Z,1.70
2023-02-26T06:36:25.991Z,1.83
2023-02-26T06:38:54.478Z,2.30
2023-02-26T06:41:24.121Z,1.88
2023-02-26T06:43:52.428Z,1.85
2023-02-26T06:46:24.781Z,2.47
2023-02-26T06:48:53.210Z,2.50
2023-02-26T06:51:21.499Z,5.05
2023-02-26T06:53:49.802Z,1.90
2023-02-26T06:56:18.141Z,1.30
2023-02-26T06:58:47.785Z,5.72
2023-02-26T07:01:18.927Z,1.95
2023-02-26T07:03:47.219Z,1.95
2023-02-26T07:06:38.304Z,2.03
2023-02-26T07:09:04.059Z,1.55
2023-02-26T07:11:32.430Z,2.10
2023-02-26T07:14:02.097Z,1.52
2023-02-26T07:16:30.442Z,2.00
2023-02-26T07:18:58.799Z,2.42
2023-02-26T07:21:27.108Z,1.67
2023-02-26T07:23:55.429Z,2.50
2023-02-26T07:26:23.974Z,6.30
2023-02-26T07:28:52.528Z,3.40
2023-02-26T07:31:22.240Z,2.17
2023-02-26T07:33:50.597Z,2.30
2023-02-26T07:36:18.862Z,1.98
2023-02-26T07:38:48.300Z,1.48
2023-02-26T07:41:16.604Z,1.63
2023-02-26T07:43:50.072Z,1.77
2023-02-26T07:46:18.428Z,2.08
2023-02-26T07:48:48.185Z,2.08
2023-02-26T07:51:16.517Z,1.63
2023-02-26T07:53:44.904Z,1.63
2023-02-26T07:56:13.206Z,2.28
2023-02-26T07:58:41.697Z,1.70
2023-02-26T08:01:10.013Z,2.35
2023-02-26T08:03:38.602Z,2.42
2023-02-26T08:06:08.794Z,1.85
2023-02-26T08:08:37.322Z,1.80
2023-02-26T08:11:05.984Z,1.88
2023-02-26T08:13:34.705Z,1.70
2023-02-26T08:16:03.064Z,1.85
2023-02-26T08:18:31.348Z,2.97
2023-02-26T08:20:59.651Z,2.75
2023-02-26T08:23:29.322Z,4.30
2023-02-26T08:26:02.226Z,3.53
2023-02-26T08:28:30.695Z,1.90
2023-02-26T08:30:59.117Z,3.20
2023-02-26T08:33:27.568Z,1.73
2023-02-26T08:35:59.153Z,1.27
2023-02-26T08:38:29.166Z,1.58
2023-02-26T08:40:57.509Z,1.70
2023-02-26T08:43:26.169Z,1.70
2023-02-26T08:45:54.991Z,1.48
2023-02-26T08:48:23.492Z,1.20
2023-02-26T08:50:52.044Z,1.00
2023-02-26T08:53:20.359Z,1.00
2023-02-26T08:55:51.160Z,1.00
2023-02-26T08:58:19.701Z,0.93
2023-02-26T09:00:51.134Z,0.80
2023-02-26T09:03:19.534Z,0.90
2023-02-26T09:05:47.856Z,1.20
2023-02-26T09:08:20.583Z,1.35
2023-02-26T09:10:48.929Z,1.20
2023-02-26T09:13:18.677Z,1.20
2023-02-26T09:15:50.598Z,1.05
2023-02-26T09:18:18.900Z,0.90
2023-02-26T09:20:47.363Z,0.88
2023-02-26T09:23:15.677Z,0.90
2023-02-26T09:25:44.016Z,1.10
2023-02-26T09:28:12.343Z,0.95
2023-02-26T09:30:42.145Z,1.50
2023-02-26T09:33:10.802Z,1.38
2023-02-26T09:35:39.125Z,1.30
2023-02-26T09:38:08.213Z,1.08
2023-02-26T09:40:42.480Z,1.35
2023-02-26T09:43:36.872Z,1.13
2023-02-26T09:48:36.573Z,1.40
2023-02-26T09:51:05.178Z,1.33
2023-02-26T09:53:35.090Z,1.67
2023-02-26T09:56:05.360Z,1.58
2023-02-26T09:58:39.421Z,1.10
2023-02-26T10:01:16.508Z,1.45
2023-02-26T10:03:53.345Z,1.20
2023-02-26T10:06:24.043Z,1.33
2023-02-26T10:09:07.875Z,1.70
2023-02-26T10:11:41.612Z,1.80
2023-02-26T10:16:41.946Z,2.72
2023-02-26T10:19:13.731Z,2.40
2023-02-26T10:21:44.335Z,2.88
2023-02-26T10:24:15.029Z,2.58
2023-02-26T10:26:45.517Z,2.00
2023-02-26T10:29:21.505Z,1.30
2023-02-26T10:31:57.382Z,0.88
2023-02-26T10:34:30.952Z,1.23
2023-02-26T10:37:03.121Z,1.90
2023-02-26T10:39:34.371Z,1.30
2023-02-26T10:42:04.573Z,1.20
2023-02-26T10:44:37.456Z,1.02
2023-02-26T10:47:11.008Z,1.50
2023-02-26T10:49:50.596Z,1.90
2023-02-26T10:52:33.353Z,1.25
2023-02-26T10:55:19.315Z,1.52
2023-02-26T10:57:50.182Z,1.20
2023-02-26T11:00:21.530Z,1.40
2023-02-26T11:02:52.031Z,1.20
2023-02-26T11:05:23.290Z,0.98
2023-02-26T11:08:11.408Z,1.20
2023-02-26T11:13:53.835Z,0.93
2023-02-26T11:16:22.184Z,1.15
2023-02-26T11:18:54.245Z,0.88
2023-02-26T11:21:26.421Z,0.80
2023-02-26T11:23:58.006Z,1.38
2023-02-26T11:26:28.550Z,1.00
2023-02-26T11:28:57.111Z,0.95
2023-02-26T11:31:27.154Z,1.17
2023-02-26T11:33:56.861Z,1.25
2023-02-26T11:36:27.819Z,1.00
2023-02-26T11:38:58.644Z,1.25
2023-02-26T11:41:27.949Z,1.08
2023-02-26T11:44:00.573Z,1.48
2023-02-26T11:46:29.186Z,1.05
2023-02-26T11:48:58.433Z,1.00
2023-02-26T11:51:31.509Z,1.08
2023-02-26T11:54:01.477Z,1.42
2023-02-26T11:56:34.049Z,1.30
2023-02-26T11:59:09.177Z,1.20
2023-02-26T12:01:38.311Z,1.25
2023-02-26T12:04:06.675Z,1.00
2023-02-26T12:06:36.396Z,1.13
2023-02-26T12:09:05.193Z,1.10
2023-02-26T12:11:43.498Z,1.48
2023-02-26T12:14:25.136Z,1.13
2023-02-26T12:16:59.457Z,1.02
2023-02-26T12:19:33.670Z,1.10
2023-02-26T12:22:16.042Z,1.10
2023-02-26T12:24:50.996Z,1.50
2023-02-26T12:27:24.769Z,1.42
2023-02-26T12:32:27.027Z,1.90
2023-02-26T12:37:33.917Z,1.20
2023-02-26T12:40:08.345Z,1.05
2023-02-26T12:42:42.875Z,1.30
2023-02-26T12:45:19.579Z,1.20
2023-02-26T12:47:53.488Z,1.63
2023-02-26T12:50:26.360Z,1.30
2023-02-26T12:53:10.776Z,1.80
2023-02-26T12:55:42.107Z,1.48
2023-02-26T12:58:30.780Z,2.42
2023-02-26T13:01:10.199Z,1.20
2023-02-26T13:03:56.414Z,1.10
2023-02-26T13:06:39.746Z,1.77
2023-02-26T13:09:14.716Z,1.75
2023-02-26T13:11:48.260Z,2.03
2023-02-26T13:14:23.400Z,1.40
2023-02-26T13:16:53.657Z,1.10
2023-02-26T13:19:28.454Z,0.90
2023-02-26T13:22:05.232Z,1.20
2023-02-26T13:24:37.222Z,2.83
2023-02-26T13:27:07.887Z,1.52
2023-02-26T13:29:40.156Z,1.20
2023-02-26T13:32:13.778Z,0.90
2023-02-26T13:34:43.789Z,2.25
2023-02-26T13:37:21.908Z,1.17
2023-02-26T13:39:56.467Z,1.33
2023-02-26T13:42:29.262Z,1.67
2023-02-26T13:45:06.382Z,2.08
2023-02-26T13:47:43.039Z,1.88
2023-02-26T13:50:21.320Z,1.27
2023-02-26T13:52:53.918Z,1.20
2023-02-26T13:55:45.001Z,1.17
2023-02-26T13:58:29.428Z,1.00
2023-02-26T14:01:02.513Z,0.80
2023-02-26T14:03:33.648Z,0.82
2023-02-26T14:06:24.155Z,1.00
2023-02-26T14:08:56.069Z,0.70
2023-02-26T14:11:51.531Z,0.80
2023-02-26T14:14:27.922Z,0.77
2023-02-26T14:16:57.629Z,0.70
2023-02-26T14:19:29.205Z,0.77
2023-02-26T14:21:59.151Z,1.00
2023-02-26T14:24:36.481Z,0.75
2023-02-26T14:27:24.318Z,0.80
2023-02-26T14:30:01.536Z,0.80
2023-02-26T14:32:32.713Z,0.82
2023-02-26T14:35:02.423Z,0.93
2023-02-26T14:37:31.975Z,1.10
2023-02-26T14:40:03.903Z,1.00
2023-02-26T14:42:35.502Z,1.10
2023-02-26T14:45:10.701Z,1.30
2023-02-26T14:47:39.679Z,1.10
2023-02-26T14:50:08.907Z,0.90
2023-02-26T14:52:58.196Z,1.05
2023-02-26T14:55:36.108Z,0.70
2023-02-26T14:58:12.086Z,1.60
2023-02-26T15:00:45.526Z,0.98
2023-02-26T15:03:33.229Z,0.90
2023-02-26T15:06:06.315Z,0.90
2023-02-26T15:08:41.056Z,1.00
2023-02-26T15:11:20.938Z,0.70
2023-02-26T15:14:05.100Z,0.50
2023-02-26T15:19:14.554Z,1.00
2023-02-26T15:21:49.786Z,0.98
2023-02-26T15:24:18.308Z,1.10
2023-02-26T15:26:48.414Z,1.27
2023-02-26T15:29:17.953Z,0.90
2023-02-26T15:31:49.226Z,1.00
2023-02-26T15:34:19.698Z,1.00
2023-02-26T15:36:51.462Z,0.90
2023-02-26T15:39:22.106Z,1.08
2023-02-26T15:41:51.382Z,0.75
2023-02-26T15:44:22.200Z,1.60
2023-02-26T15:46:52.590Z,1.35
2023-02-26T15:49:25.955Z,1.55
2023-02-26T15:51:55.034Z,1.00
2023-02-26T15:54:24.977Z,1.50
2023-02-26T15:56:53.420Z,1.17
2023-02-26T15:59:26.711Z,0.75
2023-02-26T16:01:56.090Z,0.80
2023-02-26T16:04:25.857Z,2.35
2023-02-26T16:06:58.669Z,1.00
2023-02-26T16:09:29.207Z,0.90
2023-02-26T16:12:01.517Z,0.88
2023-02-26T16:14:31.978Z,1.20
2023-02-26T16:17:04.231Z,2.00
2023-02-26T16:19:36.001Z,0.75
2023-02-26T16:22:06.022Z,0.88
2023-02-26T16:24:36.986Z,1.15
2023-02-26T16:27:08.979Z,1.33
2023-02-26T16:29:40.778Z,2.40
2023-02-26T16:32:12.985Z,1.50
2023-02-26T16:34:44.412Z,2.15
2023-02-26T16:37:14.719Z,1.48
2023-02-26T16:39:45.547Z,3.20
2023-02-26T16:42:16.896Z,1.55
2023-02-26T16:44:53.397Z,1.48
2023-02-26T16:47:25.909Z,0.90
2023-02-26T16:49:59.809Z,1.02
2023-02-26T16:52:35.915Z,0.85
2023-02-26T16:55:08.036Z,1.50
2023-02-26T16:57:44.787Z,2.17
2023-02-26T17:00:20.004Z,1.80
2023-02-26T17:02:54.195Z,1.00
2023-02-26T17:05:28.863Z,1.40
2023-02-26T17:07:58.701Z,1.20
2023-02-26T17:10:40.474Z,1.20
2023-02-26T17:13:15.064Z,1.50
2023-02-26T17:15:43.570Z,1.70
2023-02-26T17:18:11.819Z,1.42
2023-02-26T17:20:41.099Z,1.55
2023-02-26T17:23:17.764Z,1.58
2023-02-26T17:25:50.262Z,1.27
2023-02-26T17:28:20.760Z,1.40
2023-02-26T17:30:49.112Z,4.05
2023-02-26T17:33:17.518Z,1.70
2023-02-26T17:35:46.075Z,0.82
2023-02-26T17:38:15.913Z,0.93
2023-02-26T17:40:45.364Z,1.10
2023-02-26T17:43:15.540Z,1.38
2023-02-26T17:45:44.037Z,1.10
2023-02-26T17:48:13.414Z,1.13
2023-02-26T17:50:43.900Z,1.80
2023-02-26T17:53:12.232Z,1.23
2023-02-26T17:55:40.903Z,1.52
2023-02-26T17:58:09.758Z,1.52
2023-02-26T18:00:41.996Z,1.40
2023-02-26T18:03:10.454Z,2.15
2023-02-26T18:06:10.095Z,1.63
2023-02-26T18:08:40.901Z,1.25
2023-02-26T18:11:11.811Z,1.15
2023-02-26T18:13:40.555Z,1.20
2023-02-26T18:16:14.477Z,1.60
2023-02-26T18:18:42.853Z,1.27
2023-02-26T18:21:15.129Z,1.20
2023-02-26T18:23:45.428Z,1.13
2023-02-26T18:26:14.780Z,0.95
2023-02-26T18:28:43.141Z,1.48
2023-02-26T18:31:19.076Z,0.90
2023-02-26T18:33:48.354Z,1.20
2023-02-26T18:36:21.062Z,1.65
2023-02-26T18:38:53.403Z,2.17
2023-02-26T18:41:21.669Z,1.60
2023-02-26T18:43:50.070Z,2.92
2023-02-26T18:46:19.864Z,2.25
2023-02-26T18:48:48.351Z,1.88
2023-02-26T18:51:16.746Z,3.05
2023-02-26T18:53:45.252Z,2.78
2023-02-26T18:56:16.492Z,2.00
2023-02-26T18:58:44.876Z,2.15
2023-02-26T19:01:13.383Z,2.88
2023-02-26T19:03:50.579Z,3.80
2023-02-26T19:06:31.127Z,3.22
2023-02-26T19:09:10.381Z,3.70
2023-02-26T19:11:39.126Z,2.83
2023-02-26T19:14:07.433Z,4.07
2023-02-26T19:16:38.988Z,3.85
2023-02-26T19:19:11.217Z,2.90
2023-02-26T19:21:41.100Z,2.60
2023-02-26T19:24:16.214Z,2.28
2023-02-26T19:26:50.412Z,3.00
2023-02-26T19:29:24.686Z,2.53
2023-02-26T19:31:53.338Z,2.20
2023-02-26T19:34:23.567Z,2.20
2023-02-26T19:36:53.631Z,2.35
2023-02-26T19:39:22.232Z,2.00
2023-02-26T19:41:52.649Z,2.30
2023-02-26T19:44:21.323Z,1.98
2023-02-26T19:46:50.119Z,2.00
2023-02-26T19:49:18.789Z,2.60
2023-02-26T19:51:48.537Z,3.00
2023-02-26T19:54:16.969Z,2.55
2023-02-26T19:56:45.844Z,3.60
2023-02-26T19:59:14.300Z,4.60
2023-02-26T20:01:57.898Z,6.10
2023-02-26T20:04:26.648Z,10.45
2023-02-26T20:07:00.712Z,15.95
2023-02-26T20:09:49.452Z,15.68
2023-02-26T20:12:18.158Z,12.15
2023-02-26T20:14:46.491Z,10.48
2023-02-26T20:17:14.799Z,7.70
2023-02-26T20:19:44.545Z,7.22
2023-02-26T20:22:18.434Z,6.93
2023-02-26T20:24:48.223Z,6.07
2023-02-26T20:27:16.587Z,3.38
2023-02-26T20:29:46.644Z,3.42
2023-02-26T20:32:17.579Z,3.63
2023-02-26T20:34:51.884Z,3.10
2023-02-26T20:37:21.597Z,2.70
2023-02-26T20:39:57.461Z,2.92
2023-02-26T20:42:26.467Z,2.97
2023-02-26T20:44:54.894Z,4.43
2023-02-26T20:47:23.252Z,4.18
2023-02-26T20:50:03.102Z,3.83
2023-02-26T20:52:32.903Z,2.90
2023-02-26T20:55:05.372Z,1.98
2023-02-26T20:57:35.418Z,2.42
2023-02-26T21:00:13.977Z,2.42
2023-02-26T21:02:42.654Z,2.13
2023-02-26T21:05:19.792Z,2.10
2023-02-26T21:07:53.768Z,1.80
2023-02-26T21:10:22.065Z,1.65
2023-02-26T21:12:51.704Z,1.83
2023-02-26T21:15:20.296Z,1.92
2023-02-26T21:17:48.597Z,1.85
2023-02-26T21:20:18.096Z,1.85
2023-02-26T21:22:48.684Z,1.75
2023-02-26T21:25:19.057Z,2.05
2023-02-26T21:27:48.842Z,1.90
2023-02-26T21:30:17.996Z,1.95
2023-02-26T21:33:00.198Z,1.80
2023-02-26T21:35:28.852Z,1.73
2023-02-26T21:38:04.485Z,2.80
2023-02-26T21:40:47.000Z,2.85
2023-02-26T21:43:15.654Z,2.22
2023-02-26T21:45:44.331Z,1.55
2023-02-26T21:48:12.839Z,1.90
2023-02-26T21:50:41.125Z,1.92
2023-02-26T21:53:09.469Z,2.05
2023-02-26T21:55:39.074Z,1.20
2023-02-26T21:58:08.028Z,1.83
2023-02-26T22:00:36.393Z,1.70
2023-02-26T22:03:09.761Z,2.45
2023-02-26T22:05:47.958Z,1.42
2023-02-26T22:08:16.301Z,1.90
2023-02-26T22:10:47.428Z,1.70
2023-02-26T22:13:55.434Z,1.40
2023-02-26T22:16:23.465Z,1.73
2023-02-26T22:18:55.011Z,1.63
2023-02-26T22:21:24.292Z,1.80
2023-02-26T22:23:52.804Z,1.55
2023-02-26T22:26:22.579Z,1.83
2023-02-26T22:28:55.446Z,1.77
2023-02-26T22:31:24.007Z,2.20
2023-02-26T22:33:54.703Z,1.67
2023-02-26T22:36:26.692Z,1.73
2023-02-26T22:39:00.538Z,1.60
2023-02-26T22:41:33.402Z,1.85
2023-02-26T22:44:02.067Z,2.33
2023-02-26T22:46:30.953Z,2.10
2023-02-26T22:49:05.505Z,1.70
2023-02-26T22:51:33.958Z,2.05
2023-02-26T22:54:02.655Z,1.92
2023-02-26T22:56:35.474Z,2.08
2023-02-26T22:59:03.792Z,2.13
2023-02-26T23:01:35.837Z,1.80
2023-02-26T23:04:04.216Z,2.30
2023-02-26T23:06:32.491Z,2.30
2023-02-26T23:09:00.862Z,2.45
2023-02-26T23:11:29.429Z,2.20
2023-02-26T23:13:59.264Z,2.20
2023-02-26T23:16:28.709Z,1.70
2023-02-26T23:19:04.656Z,1.77
2023-02-26T23:21:33.066Z,1.92
2023-02-26T23:24:01.338Z,1.95
2023-02-26T23:26:30.087Z,1.67
2023-02-26T23:28:59.790Z,1.90
2023-02-26T23:31:28.593Z,2.22
2023-02-26T23:33:57.108Z,2.22
2023-02-26T23:36:25.387Z,2.20
2023-02-26T23:38:53.659Z,2.10
2023-02-26T23:41:26.245Z,1.75
2023-02-26T23:43:54.723Z,1.90
2023-02-26T23:46:24.409Z,2.10
2023-02-26T23:48:52.692Z,1.88
2023-02-26T23:51:21.046Z,1.75
2023-02-26T23:53:49.330Z,1.70
2023-02-26T23:56:17.644Z,1.83
2023-02-26T23:58:45.934Z,1.73
